createdAt,value
2017-08-05T00:00:18.061Z,994.1
2017-08-05T00:00:38.700Z,994
2017-08-05T00:00:59.361Z,994.1
2017-08-05T00:01:20.006Z,994.1
2017-08-05T00:01:40.636Z,994
2017-08-05T00:02:01.276Z,994.1
2017-08-05T00:02:21.918Z,994.1
2017-08-05T00:02:42.595Z,994.1
2017-08-05T00:03:03.292Z,994
2017-08-05T00:03:23.942Z,994
2017-08-05T00:03:44.603Z,994
2017-08-05T00:04:05.253Z,994
2017-08-05T00:04:25.900Z,994
2017-08-05T00:04:46.549Z,994.1
2017-08-05T00:05:07.180Z,994.1
2017-08-05T00:05:27.833Z,994
2017-08-05T00:05:48.468Z,994.1
2017-08-05T00:06:09.135Z,994.1
2017-08-05T00:06:29.779Z,994.1
2017-08-05T00:06:50.437Z,994.1
2017-08-05T00:07:11.150Z,994.1
2017-08-05T00:07:31.808Z,994.1
2017-08-05T00:07:52.583Z,994.1
2017-08-05T00:08:13.238Z,994.1
2017-08-05T00:08:33.874Z,994.1
2017-08-05T00:08:54.538Z,994.1
2017-08-05T00:09:15.192Z,994.1
2017-08-05T00:09:35.868Z,994.1
2017-08-05T00:09:56.505Z,994.1
2017-08-05T00:10:17.175Z,994.1
2017-08-05T00:10:37.824Z,994.1
2017-08-05T00:10:58.495Z,994.1
2017-08-05T00:11:19.147Z,994.1
2017-08-05T00:11:39.813Z,994.1
2017-08-05T00:12:00.460Z,994.1
2017-08-05T00:12:21.133Z,994.1
2017-08-05T00:12:41.767Z,994.2
2017-08-05T00:13:02.412Z,994.1
2017-08-05T00:13:23.099Z,994.1
2017-08-05T00:13:43.755Z,994.1
2017-08-05T00:14:04.391Z,994.2
2017-08-05T00:14:25.038Z,994.2
2017-08-05T00:14:45.681Z,994.1
2017-08-05T00:15:06.342Z,994.1
2017-08-05T00:15:26.994Z,994.2
2017-08-05T00:15:47.653Z,994.1
2017-08-05T00:16:08.276Z,994.1
2017-08-05T00:16:28.920Z,994.1
2017-08-05T00:16:49.567Z,994.1
2017-08-05T00:17:10.227Z,994.1
2017-08-05T00:17:30.884Z,994.1
2017-08-05T00:17:51.538Z,994.1
2017-08-05T00:18:12.222Z,994.2
2017-08-05T00:18:32.888Z,994.2
2017-08-05T00:18:53.574Z,994.2
2017-08-05T00:19:14.217Z,994.2
2017-08-05T00:19:34.873Z,994.1
2017-08-05T00:19:55.537Z,994.1
2017-08-05T00:20:16.193Z,994.1
2017-08-05T00:20:36.830Z,994.1
2017-08-05T00:20:57.461Z,994.2
2017-08-05T00:21:18.096Z,994.1
2017-08-05T00:21:38.725Z,994.2
2017-08-05T00:21:59.383Z,994.2
2017-08-05T00:22:20.048Z,994.2
2017-08-05T00:22:40.727Z,994.1
2017-08-05T00:23:01.379Z,994.2
2017-08-05T00:23:22.050Z,994.2
2017-08-05T00:23:42.693Z,994.2
2017-08-05T00:24:03.360Z,994.1
2017-08-05T00:24:24.058Z,994.1
2017-08-05T00:24:44.686Z,994.1
2017-08-05T00:25:05.354Z,994.2
2017-08-05T00:25:25.997Z,994.2
2017-08-05T00:25:46.682Z,994.1
2017-08-05T00:26:07.318Z,994.2
2017-08-05T00:26:27.963Z,994.2
2017-08-05T00:26:48.629Z,994.2
2017-08-05T00:27:09.279Z,994.2
2017-08-05T00:27:29.977Z,994.2
2017-08-05T00:27:50.614Z,994.2
2017-08-05T00:28:11.312Z,994.2
2017-08-05T00:28:31.961Z,994.2
2017-08-05T00:28:52.622Z,994.2
2017-08-05T00:29:13.264Z,994.2
2017-08-05T00:29:33.913Z,994.2
2017-08-05T00:29:54.577Z,994.2
2017-08-05T00:30:15.219Z,994.2
2017-08-05T00:30:35.865Z,994.2
2017-08-05T00:30:56.516Z,994.2
2017-08-05T00:31:17.186Z,994.2
2017-08-05T00:31:37.813Z,994.2
2017-08-05T00:31:58.454Z,994.2
2017-08-05T00:32:19.112Z,994.2
2017-08-05T00:32:39.751Z,994.2
2017-08-05T00:33:00.399Z,994.2
2017-08-05T00:33:21.055Z,994.2
2017-08-05T00:33:41.703Z,994.2
2017-08-05T00:34:02.349Z,994.2
2017-08-05T00:34:23.007Z,994.2
2017-08-05T00:34:43.639Z,994.2
2017-08-05T00:35:04.293Z,994.2
2017-08-05T00:35:24.937Z,994.2
2017-08-05T00:35:45.596Z,994.2
2017-08-05T00:36:06.246Z,994.2
2017-08-05T00:36:26.894Z,994.2
2017-08-05T00:36:47.528Z,994.3
2017-08-05T00:37:08.159Z,994.2
2017-08-05T00:37:28.813Z,994.3
2017-08-05T00:37:49.461Z,994.2
2017-08-05T00:38:10.099Z,994.3
2017-08-05T00:38:30.784Z,994.3
2017-08-05T00:38:51.407Z,994.2
2017-08-05T00:39:12.057Z,994.2
2017-08-05T00:39:32.694Z,994.2
2017-08-05T00:39:53.368Z,994.2
2017-08-05T00:40:14.038Z,994.2
2017-08-05T00:40:34.691Z,994.2
2017-08-05T00:40:55.362Z,994.2
2017-08-05T00:41:15.998Z,994.2
2017-08-05T00:41:36.660Z,994.2
2017-08-05T00:41:58.244Z,994.2
2017-08-05T00:42:18.883Z,994.2
2017-08-05T00:42:39.514Z,994.3
2017-08-05T00:43:00.141Z,994.2
2017-08-05T00:43:20.789Z,994.3
2017-08-05T00:43:41.466Z,994.2
2017-08-05T00:44:02.110Z,994.3
2017-08-05T00:44:22.742Z,994.3
2017-08-05T00:44:43.382Z,994.3
2017-08-05T00:45:04.032Z,994.3
2017-08-05T00:45:24.672Z,994.3
2017-08-05T00:45:45.314Z,994.3
2017-08-05T00:46:05.970Z,994.3
2017-08-05T00:46:26.602Z,994.3
2017-08-05T00:46:47.267Z,994.3
2017-08-05T00:47:07.917Z,994.3
2017-08-05T00:47:28.574Z,994.3
2017-08-05T00:47:49.236Z,994.3
2017-08-05T00:48:09.864Z,994.3
2017-08-05T00:48:30.524Z,994.3
2017-08-05T00:48:51.178Z,994.3
2017-08-05T00:49:11.843Z,994.3
2017-08-05T00:49:32.471Z,994.3
2017-08-05T00:49:53.106Z,994.3
2017-08-05T00:50:13.771Z,994.3
2017-08-05T00:50:34.402Z,994.3
2017-08-05T00:50:55.033Z,994.3
2017-08-05T00:51:15.669Z,994.3
2017-08-05T00:51:36.320Z,994.3
2017-08-05T00:51:56.984Z,994.3
2017-08-05T00:52:17.636Z,994.3
2017-08-05T00:52:38.278Z,994.3
2017-08-05T00:52:58.933Z,994.3
2017-08-05T00:53:19.574Z,994.3
2017-08-05T00:53:40.226Z,994.3
2017-08-05T00:54:00.889Z,994.3
2017-08-05T00:54:21.531Z,994.3
2017-08-05T00:54:42.200Z,994.3
2017-08-05T00:55:02.848Z,994.3
2017-08-05T00:55:23.508Z,994.3
2017-08-05T00:55:44.218Z,994.3
2017-08-05T00:56:04.883Z,994.3
2017-08-05T00:56:25.530Z,994.3
2017-08-05T00:56:46.213Z,994.3
2017-08-05T00:57:06.854Z,994.3
2017-08-05T00:57:27.507Z,994.3
2017-08-05T00:57:48.207Z,994.3
2017-08-05T00:58:09.874Z,994.3
2017-08-05T00:58:30.508Z,994.3
2017-08-05T00:58:51.164Z,994.3
2017-08-05T00:59:11.825Z,994.3
2017-08-05T00:59:32.471Z,994.3
2017-08-05T00:59:53.129Z,994.2
2017-08-05T01:00:13.795Z,994.3
2017-08-05T01:00:34.455Z,994.3
2017-08-05T01:00:55.094Z,994.3
2017-08-05T01:01:15.741Z,994.3
2017-08-05T01:01:36.426Z,994.3
2017-08-05T01:01:57.065Z,994.3
2017-08-05T01:02:17.730Z,994.3
2017-08-05T01:02:38.375Z,994.3
2017-08-05T01:02:59.060Z,994.3
2017-08-05T01:03:19.701Z,994.3
2017-08-05T01:03:40.375Z,994.3
2017-08-05T01:04:01.054Z,994.3
2017-08-05T01:04:21.709Z,994.3
2017-08-05T01:04:42.355Z,994.3
2017-08-05T01:05:03.011Z,994.3
2017-08-05T01:05:23.664Z,994.3
2017-08-05T01:05:44.333Z,994.3
2017-08-05T01:06:04.988Z,994.3
2017-08-05T01:06:25.630Z,994.3
2017-08-05T01:06:46.283Z,994.3
2017-08-05T01:07:06.936Z,994.4
2017-08-05T01:07:27.587Z,994.3
2017-08-05T01:07:48.253Z,994.3
2017-08-05T01:08:08.900Z,994.3
2017-08-05T01:08:29.560Z,994.3
2017-08-05T01:08:50.213Z,994.3
2017-08-05T01:09:10.857Z,994.3
2017-08-05T01:09:31.512Z,994.3
2017-08-05T01:09:52.147Z,994.3
2017-08-05T01:10:12.852Z,994.3
2017-08-05T01:10:33.495Z,994.3
2017-08-05T01:10:54.136Z,994.3
2017-08-05T01:11:14.780Z,994.3
2017-08-05T01:11:35.465Z,994.3
2017-08-05T01:11:56.105Z,994.3
2017-08-05T01:12:16.783Z,994.3
2017-08-05T01:12:37.428Z,994.3
2017-08-05T01:12:58.070Z,994.3
2017-08-05T01:13:18.779Z,994.3
2017-08-05T01:13:39.418Z,994.3
2017-08-05T01:14:00.079Z,994.3
2017-08-05T01:14:20.716Z,994.3
2017-08-05T01:14:41.382Z,994.3
2017-08-05T01:15:02.015Z,994.3
2017-08-05T01:15:22.673Z,994.3
2017-08-05T01:15:43.309Z,994.3
2017-08-05T01:16:03.963Z,994.3
2017-08-05T01:16:24.599Z,994.3
2017-08-05T01:16:45.272Z,994.3
2017-08-05T01:17:05.921Z,994.3
2017-08-05T01:17:26.572Z,994.3
2017-08-05T01:17:47.224Z,994.3
2017-08-05T01:18:07.863Z,994.3
2017-08-05T01:18:28.527Z,994.3
2017-08-05T01:18:49.166Z,994.3
2017-08-05T01:19:09.805Z,994.3
2017-08-05T01:19:30.475Z,994.3
2017-08-05T01:19:51.135Z,994.3
2017-08-05T01:20:11.786Z,994.3
2017-08-05T01:20:32.451Z,994.3
2017-08-05T01:20:53.103Z,994.3
2017-08-05T01:21:13.741Z,994.3
2017-08-05T01:21:34.377Z,994.3
2017-08-05T01:21:55.029Z,994.3
2017-08-05T01:22:15.668Z,994.3
2017-08-05T01:22:36.335Z,994.3
2017-08-05T01:22:56.987Z,994.3
2017-08-05T01:23:17.614Z,994.3
2017-08-05T01:23:38.254Z,994.3
2017-08-05T01:23:58.901Z,994.3
2017-08-05T01:24:19.545Z,994.3
2017-08-05T01:24:40.212Z,994.3
2017-08-05T01:25:00.840Z,994.3
2017-08-05T01:25:21.474Z,994.3
2017-08-05T01:25:42.120Z,994.3
2017-08-05T01:26:02.763Z,994.3
2017-08-05T01:26:23.405Z,994.3
2017-08-05T01:26:44.084Z,994.3
2017-08-05T01:27:04.724Z,994.3
2017-08-05T01:27:25.373Z,994.3
2017-08-05T01:27:46.028Z,994.3
2017-08-05T01:28:06.697Z,994.3
2017-08-05T01:28:27.356Z,994.3
2017-08-05T01:28:48.019Z,994.3
2017-08-05T01:29:08.672Z,994.3
2017-08-05T01:29:29.313Z,994.3
2017-08-05T01:29:49.958Z,994.3
2017-08-05T01:30:10.598Z,994.3
2017-08-05T01:30:31.251Z,994.3
2017-08-05T01:30:51.893Z,994.3
2017-08-05T01:31:12.538Z,994.3
2017-08-05T01:31:33.189Z,994.3
2017-08-05T01:31:53.831Z,994.3
2017-08-05T01:32:14.480Z,994.3
2017-08-05T01:32:35.125Z,994.3
2017-08-05T01:32:55.796Z,994.3
2017-08-05T01:33:16.506Z,994.3
2017-08-05T01:33:37.149Z,994.3
2017-08-05T01:33:57.804Z,994.3
2017-08-05T01:34:18.466Z,994.3
2017-08-05T01:34:39.110Z,994.3
2017-08-05T01:34:59.751Z,994.3
2017-08-05T01:35:20.397Z,994.3
2017-08-05T01:35:41.046Z,994.3
2017-08-05T01:36:01.705Z,994.3
2017-08-05T01:36:22.367Z,994.3
2017-08-05T01:36:43.023Z,994.3
2017-08-05T01:37:03.668Z,994.3
2017-08-05T01:37:24.316Z,994.3
2017-08-05T01:37:44.960Z,994.4
2017-08-05T01:38:05.615Z,994.3
2017-08-05T01:38:26.266Z,994.3
2017-08-05T01:38:46.904Z,994.3
2017-08-05T01:39:07.522Z,994.4
2017-08-05T01:39:28.183Z,994.4
2017-08-05T01:39:48.815Z,994.4
2017-08-05T01:40:09.469Z,994.4
2017-08-05T01:40:30.173Z,994.4
2017-08-05T01:40:50.807Z,994.4
2017-08-05T01:41:11.454Z,994.5
2017-08-05T01:41:32.100Z,994.4
2017-08-05T01:41:52.730Z,994.4
2017-08-05T01:42:13.412Z,994.4
2017-08-05T01:42:34.078Z,994.4
2017-08-05T01:42:54.714Z,994.4
2017-08-05T01:43:15.392Z,994.4
2017-08-05T01:43:36.041Z,994.4
2017-08-05T01:43:56.738Z,994.4
2017-08-05T01:44:17.388Z,994.5
2017-08-05T01:44:38.055Z,994.4
2017-08-05T01:44:58.697Z,994.5
2017-08-05T01:45:19.347Z,994.4
2017-08-05T01:45:39.985Z,994.5
2017-08-05T01:46:00.635Z,994.5
2017-08-05T01:46:21.280Z,994.4
2017-08-05T01:46:41.938Z,994.4
2017-08-05T01:47:02.587Z,994.5
2017-08-05T01:47:23.241Z,994.5
2017-08-05T01:47:43.871Z,994.4
2017-08-05T01:48:04.501Z,994.4
2017-08-05T01:48:25.146Z,994.5
2017-08-05T01:48:45.791Z,994.4
2017-08-05T01:49:06.437Z,994.5
2017-08-05T01:49:27.076Z,994.5
2017-08-05T01:49:47.729Z,994.5
2017-08-05T01:50:08.368Z,994.5
2017-08-05T01:50:29.010Z,994.4
2017-08-05T01:50:49.657Z,994.5
2017-08-05T01:51:10.293Z,994.5
2017-08-05T01:51:30.938Z,994.5
2017-08-05T01:51:51.581Z,994.5
2017-08-05T01:52:12.244Z,994.5
2017-08-05T01:52:32.896Z,994.5
2017-08-05T01:52:53.530Z,994.5
2017-08-05T01:53:14.171Z,994.5
2017-08-05T01:53:34.820Z,994.5
2017-08-05T01:53:55.466Z,994.5
2017-08-05T01:54:16.105Z,994.5
2017-08-05T01:54:36.737Z,994.5
2017-08-05T01:54:57.382Z,994.5
2017-08-05T01:55:18.026Z,994.5
2017-08-05T01:55:38.672Z,994.5
2017-08-05T01:55:59.337Z,994.5
2017-08-05T01:56:19.998Z,994.5
2017-08-05T01:56:40.631Z,994.5
2017-08-05T01:57:01.272Z,994.5
2017-08-05T01:57:21.923Z,994.5
2017-08-05T01:57:42.558Z,994.5
2017-08-05T01:58:03.217Z,994.5
2017-08-05T01:58:23.848Z,994.5
2017-08-05T01:58:44.489Z,994.5
2017-08-05T01:59:05.140Z,994.5
2017-08-05T01:59:25.789Z,994.5
2017-08-05T01:59:46.428Z,994.5
2017-08-05T02:00:07.079Z,994.5
2017-08-05T02:00:27.744Z,994.5
2017-08-05T02:00:48.423Z,994.5
2017-08-05T02:01:09.093Z,994.5
2017-08-05T02:01:29.728Z,994.5
2017-08-05T02:01:50.380Z,994.4
2017-08-05T02:02:11.047Z,994.4
2017-08-05T02:02:31.684Z,994.5
2017-08-05T02:02:52.320Z,994.5
2017-08-05T02:03:12.977Z,994.4
2017-08-05T02:03:33.658Z,994.4
2017-08-05T02:03:54.299Z,994.5
2017-08-05T02:04:14.934Z,994.5
2017-08-05T02:04:35.589Z,994.5
2017-08-05T02:04:56.284Z,994.5
2017-08-05T02:05:16.915Z,994.4
2017-08-05T02:05:37.570Z,994.4
2017-08-05T02:05:58.207Z,994.4
2017-08-05T02:06:18.885Z,994.4
2017-08-05T02:06:39.545Z,994.4
2017-08-05T02:07:00.190Z,994.4
2017-08-05T02:07:20.828Z,994.4
2017-08-05T02:07:41.483Z,994.4
2017-08-05T02:08:02.167Z,994.4
2017-08-05T02:08:22.825Z,994.4
2017-08-05T02:08:43.469Z,994.4
2017-08-05T02:09:04.100Z,994.4
2017-08-05T02:09:24.772Z,994.4
2017-08-05T02:09:45.431Z,994.4
2017-08-05T02:10:06.097Z,994.5
2017-08-05T02:10:26.781Z,994.5
2017-08-05T02:10:47.426Z,994.5
2017-08-05T02:11:08.114Z,994.4
2017-08-05T02:11:28.801Z,994.5
2017-08-05T02:11:49.472Z,994.5
2017-08-05T02:12:10.122Z,994.5
2017-08-05T02:12:30.765Z,994.5
2017-08-05T02:12:51.422Z,994.5
2017-08-05T02:13:12.076Z,994.5
2017-08-05T02:13:32.746Z,994.5
2017-08-05T02:13:53.383Z,994.5
2017-08-05T02:14:14.021Z,994.5
2017-08-05T02:14:34.656Z,994.6
2017-08-05T02:14:55.343Z,994.6
2017-08-05T02:15:15.990Z,994.5
2017-08-05T02:15:36.676Z,994.5
2017-08-05T02:15:57.320Z,994.6
2017-08-05T02:16:17.967Z,994.5
2017-08-05T02:16:38.667Z,994.5
2017-08-05T02:16:59.316Z,994.6
2017-08-05T02:17:19.959Z,994.5
2017-08-05T02:17:40.588Z,994.5
2017-08-05T02:18:01.264Z,994.5
2017-08-05T02:18:21.895Z,994.6
2017-08-05T02:18:42.543Z,994.5
2017-08-05T02:19:03.175Z,994.6
2017-08-05T02:19:23.841Z,994.6
2017-08-05T02:19:44.490Z,994.5
2017-08-05T02:20:05.199Z,994.6
2017-08-05T02:20:25.831Z,994.5
2017-08-05T02:20:46.474Z,994.6
2017-08-05T02:21:07.115Z,994.6
2017-08-05T02:21:27.816Z,994.5
2017-08-05T02:21:48.465Z,994.5
2017-08-05T02:22:09.133Z,994.5
2017-08-05T02:22:29.759Z,994.5
2017-08-05T02:22:50.404Z,994.5
2017-08-05T02:23:11.046Z,994.5
2017-08-05T02:23:31.689Z,994.5
2017-08-05T02:23:52.332Z,994.5
2017-08-05T02:24:12.989Z,994.5
2017-08-05T02:24:33.651Z,994.5
2017-08-05T02:24:54.291Z,994.5
2017-08-05T02:25:14.921Z,994.4
2017-08-05T02:25:35.551Z,994.5
2017-08-05T02:25:56.202Z,994.5
2017-08-05T02:26:16.860Z,994.4
2017-08-05T02:26:37.542Z,994.5
2017-08-05T02:26:58.195Z,994.5
2017-08-05T02:27:18.842Z,994.5
2017-08-05T02:27:39.512Z,994.5
2017-08-05T02:28:00.174Z,994.5
2017-08-05T02:28:20.812Z,994.5
2017-08-05T02:28:41.475Z,994.5
2017-08-05T02:29:02.111Z,994.5
2017-08-05T02:29:22.764Z,994.5
2017-08-05T02:29:43.407Z,994.5
2017-08-05T02:30:04.042Z,994.5
2017-08-05T02:30:24.713Z,994.5
2017-08-05T02:30:45.416Z,994.5
2017-08-05T02:31:06.077Z,994.5
2017-08-05T02:31:26.746Z,994.5
2017-08-05T02:31:47.412Z,994.4
2017-08-05T02:32:08.117Z,994.5
2017-08-05T02:32:28.754Z,994.5
2017-08-05T02:32:49.435Z,994.5
2017-08-05T02:33:10.096Z,994.5
2017-08-05T02:33:30.728Z,994.5
2017-08-05T02:33:51.369Z,994.5
2017-08-05T02:34:12.049Z,994.5
2017-08-05T02:34:32.687Z,994.5
2017-08-05T02:34:53.327Z,994.5
2017-08-05T02:35:13.962Z,994.5
2017-08-05T02:35:34.599Z,994.5
2017-08-05T02:35:55.246Z,994.5
2017-08-05T02:36:15.898Z,994.5
2017-08-05T02:36:36.548Z,994.5
2017-08-05T02:36:57.183Z,994.5
2017-08-05T02:37:17.815Z,994.5
2017-08-05T02:37:38.471Z,994.5
2017-08-05T02:37:59.144Z,994.5
2017-08-05T02:38:19.820Z,994.5
2017-08-05T02:38:40.466Z,994.4
2017-08-05T02:39:01.104Z,994.4
2017-08-05T02:39:21.751Z,994.4
2017-08-05T02:39:42.425Z,994.5
2017-08-05T02:40:03.061Z,994.5
2017-08-05T02:40:23.708Z,994.5
2017-08-05T02:40:44.384Z,994.5
2017-08-05T02:41:05.049Z,994.5
2017-08-05T02:41:25.680Z,994.5
2017-08-05T02:41:46.317Z,994.5
2017-08-05T02:42:06.962Z,994.5
2017-08-05T02:42:27.611Z,994.5
2017-08-05T02:42:48.255Z,994.5
2017-08-05T02:43:08.910Z,994.5
2017-08-05T02:43:29.578Z,994.5
2017-08-05T02:43:50.226Z,994.5
2017-08-05T02:44:10.882Z,994.5
2017-08-05T02:44:31.528Z,994.5
2017-08-05T02:44:52.205Z,994.5
2017-08-05T02:45:12.876Z,994.5
2017-08-05T02:45:33.520Z,994.5
2017-08-05T02:45:54.161Z,994.5
2017-08-05T02:46:14.799Z,994.5
2017-08-05T02:46:35.454Z,994.5
2017-08-05T02:46:56.116Z,994.5
2017-08-05T02:47:16.802Z,994.5
2017-08-05T02:47:37.467Z,994.6
2017-08-05T02:47:58.125Z,994.6
2017-08-05T02:48:18.768Z,994.6
2017-08-05T02:48:39.409Z,994.6
2017-08-05T02:49:00.091Z,994.6
2017-08-05T02:49:20.766Z,994.6
2017-08-05T02:49:41.428Z,994.6
2017-08-05T02:50:02.107Z,994.6
2017-08-05T02:50:22.788Z,994.6
2017-08-05T02:50:43.463Z,994.6
2017-08-05T02:51:04.119Z,994.6
2017-08-05T02:51:24.766Z,994.6
2017-08-05T02:51:45.433Z,994.6
2017-08-05T02:52:06.074Z,994.6
2017-08-05T02:52:26.718Z,994.6
2017-08-05T02:52:47.365Z,994.6
2017-08-05T02:53:08.035Z,994.6
2017-08-05T02:53:28.657Z,994.6
2017-08-05T02:53:49.302Z,994.6
2017-08-05T02:54:09.944Z,994.6
2017-08-05T02:54:30.591Z,994.6
2017-08-05T02:54:51.253Z,994.6
2017-08-05T02:55:11.902Z,994.6
2017-08-05T02:55:32.545Z,994.6
2017-08-05T02:55:53.214Z,994.6
2017-08-05T02:56:13.853Z,994.7
2017-08-05T02:56:34.507Z,994.7
2017-08-05T02:56:55.158Z,994.6
2017-08-05T02:57:15.831Z,994.6
2017-08-05T02:57:36.478Z,994.6
2017-08-05T02:57:57.197Z,994.6
2017-08-05T02:58:17.846Z,994.7
2017-08-05T02:58:38.480Z,994.6
2017-08-05T02:58:59.130Z,994.6
2017-08-05T02:59:19.778Z,994.7
2017-08-05T02:59:40.433Z,994.7
2017-08-05T03:00:01.080Z,994.7
2017-08-05T03:00:21.721Z,994.6
2017-08-05T03:00:42.364Z,994.7
2017-08-05T03:01:03.010Z,994.7
2017-08-05T03:01:23.656Z,994.7
2017-08-05T03:01:44.296Z,994.7
2017-08-05T03:02:04.950Z,994.7
2017-08-05T03:02:25.590Z,994.7
2017-08-05T03:02:46.237Z,994.6
2017-08-05T03:03:06.883Z,994.7
2017-08-05T03:03:27.557Z,994.7
2017-08-05T03:03:48.235Z,994.7
2017-08-05T03:04:08.885Z,994.7
2017-08-05T03:04:29.524Z,994.7
2017-08-05T03:04:50.177Z,994.7
2017-08-05T03:05:10.842Z,994.7
2017-08-05T03:05:31.507Z,994.7
2017-08-05T03:05:52.183Z,994.7
2017-08-05T03:06:12.817Z,994.7
2017-08-05T03:06:33.500Z,994.7
2017-08-05T03:06:54.141Z,994.7
2017-08-05T03:07:14.784Z,994.7
2017-08-05T03:07:35.422Z,994.6
2017-08-05T03:07:56.069Z,994.7
2017-08-05T03:08:16.723Z,994.7
2017-08-05T03:08:37.385Z,994.7
2017-08-05T03:08:58.028Z,994.7
2017-08-05T03:09:18.658Z,994.7
2017-08-05T03:09:39.308Z,994.7
2017-08-05T03:09:59.931Z,994.6
2017-08-05T03:10:20.587Z,994.6
2017-08-05T03:10:41.219Z,994.7
2017-08-05T03:11:01.865Z,994.6
2017-08-05T03:11:22.533Z,994.6
2017-08-05T03:11:43.173Z,994.6
2017-08-05T03:12:03.833Z,994.6
2017-08-05T03:12:24.493Z,994.6
2017-08-05T03:12:45.130Z,994.6
2017-08-05T03:13:05.767Z,994.6
2017-08-05T03:13:26.424Z,994.6
2017-08-05T03:13:47.083Z,994.6
2017-08-05T03:14:07.725Z,994.6
2017-08-05T03:14:28.415Z,994.6
2017-08-05T03:14:49.060Z,994.6
2017-08-05T03:15:09.715Z,994.6
2017-08-05T03:15:30.372Z,994.6
2017-08-05T03:15:51.031Z,994.7
2017-08-05T03:16:11.662Z,994.6
2017-08-05T03:16:32.307Z,994.6
2017-08-05T03:16:52.947Z,994.6
2017-08-05T03:17:13.615Z,994.6
2017-08-05T03:17:34.266Z,994.6
2017-08-05T03:17:54.917Z,994.6
2017-08-05T03:18:15.558Z,994.6
2017-08-05T03:18:36.188Z,994.6
2017-08-05T03:18:56.889Z,994.6
2017-08-05T03:19:17.543Z,994.6
2017-08-05T03:19:38.187Z,994.6
2017-08-05T03:19:58.852Z,994.6
2017-08-05T03:20:19.514Z,994.6
2017-08-05T03:20:40.198Z,994.6
2017-08-05T03:21:00.861Z,994.6
2017-08-05T03:21:21.508Z,994.6
2017-08-05T03:21:42.173Z,994.6
2017-08-05T03:22:02.814Z,994.6
2017-08-05T03:22:23.472Z,994.6
2017-08-05T03:22:44.117Z,994.6
2017-08-05T03:23:04.760Z,994.6
2017-08-05T03:23:25.447Z,994.6
2017-08-05T03:23:46.079Z,994.6
2017-08-05T03:24:06.727Z,994.7
2017-08-05T03:24:27.394Z,994.6
2017-08-05T03:24:48.027Z,994.6
2017-08-05T03:25:08.668Z,994.6
2017-08-05T03:25:29.310Z,994.6
2017-08-05T03:25:49.958Z,994.6
2017-08-05T03:26:10.614Z,994.7
2017-08-05T03:26:31.313Z,994.6
2017-08-05T03:26:51.959Z,994.6
2017-08-05T03:27:12.618Z,994.7
2017-08-05T03:27:33.266Z,994.6
2017-08-05T03:27:53.907Z,994.6
2017-08-05T03:28:14.535Z,994.6
2017-08-05T03:28:35.194Z,994.6
2017-08-05T03:28:55.877Z,994.6
2017-08-05T03:29:16.521Z,994.6
2017-08-05T03:29:37.178Z,994.6
2017-08-05T03:29:57.819Z,994.6
2017-08-05T03:30:18.472Z,994.6
2017-08-05T03:30:39.123Z,994.7
2017-08-05T03:30:59.802Z,994.7
2017-08-05T03:31:20.458Z,994.7
2017-08-05T03:31:41.103Z,994.7
2017-08-05T03:32:01.730Z,994.7
2017-08-05T03:32:22.369Z,994.7
2017-08-05T03:32:43.010Z,994.7
2017-08-05T03:33:03.680Z,994.6
2017-08-05T03:33:24.345Z,994.6
2017-08-05T03:33:45.028Z,994.7
2017-08-05T03:34:05.692Z,994.7
2017-08-05T03:34:26.350Z,994.7
2017-08-05T03:34:46.987Z,994.7
2017-08-05T03:35:07.627Z,994.7
2017-08-05T03:35:28.274Z,994.7
2017-08-05T03:35:48.927Z,994.7
2017-08-05T03:36:09.561Z,994.8
2017-08-05T03:36:30.208Z,994.8
2017-08-05T03:36:50.872Z,994.8
2017-08-05T03:37:11.505Z,994.8
2017-08-05T03:37:32.138Z,994.8
2017-08-05T03:37:52.813Z,994.8
2017-08-05T03:38:13.454Z,994.8
2017-08-05T03:38:34.109Z,994.8
2017-08-05T03:38:54.770Z,994.8
2017-08-05T03:39:15.412Z,994.8
2017-08-05T03:39:36.045Z,994.8
2017-08-05T03:39:56.711Z,994.8
2017-08-05T03:40:17.357Z,994.8
2017-08-05T03:40:38.014Z,994.9
2017-08-05T03:40:58.674Z,994.9
2017-08-05T03:41:19.303Z,994.9
2017-08-05T03:41:39.953Z,994.9
2017-08-05T03:42:00.612Z,994.9
2017-08-05T03:42:21.264Z,994.9
2017-08-05T03:42:41.939Z,994.9
2017-08-05T03:43:02.583Z,994.9
2017-08-05T03:43:23.234Z,994.9
2017-08-05T03:43:43.880Z,994.9
2017-08-05T03:44:04.537Z,994.9
2017-08-05T03:44:25.165Z,994.9
2017-08-05T03:44:45.797Z,994.9
2017-08-05T03:45:06.453Z,994.9
2017-08-05T03:45:27.108Z,994.9
2017-08-05T03:45:47.750Z,994.9
2017-08-05T03:46:08.420Z,994.9
2017-08-05T03:46:29.066Z,994.9
2017-08-05T03:46:49.714Z,994.9
2017-08-05T03:47:10.384Z,994.9
2017-08-05T03:47:31.035Z,994.9
2017-08-05T03:47:51.674Z,994.9
2017-08-05T03:48:12.328Z,994.9
2017-08-05T03:48:32.970Z,994.9
2017-08-05T03:48:53.639Z,994.9
2017-08-05T03:49:14.287Z,994.9
2017-08-05T03:49:34.927Z,994.9
2017-08-05T03:49:55.575Z,994.9
2017-08-05T03:50:16.220Z,994.9
2017-08-05T03:50:36.866Z,995
2017-08-05T03:50:57.506Z,995
2017-08-05T03:51:18.191Z,995
2017-08-05T03:51:38.825Z,995
2017-08-05T03:51:59.478Z,995
2017-08-05T03:52:20.129Z,995
2017-08-05T03:52:40.785Z,995
2017-08-05T03:53:01.439Z,995
2017-08-05T03:53:22.080Z,995
2017-08-05T03:53:42.763Z,995.1
2017-08-05T03:54:03.405Z,995
2017-08-05T03:54:24.044Z,995
2017-08-05T03:54:44.689Z,995
2017-08-05T03:55:05.324Z,995
2017-08-05T03:55:25.993Z,995
2017-08-05T03:55:46.642Z,995
2017-08-05T03:56:07.318Z,995
2017-08-05T03:56:27.954Z,995
2017-08-05T03:56:48.609Z,995
2017-08-05T03:57:09.253Z,995
2017-08-05T03:57:29.915Z,995
2017-08-05T03:57:50.570Z,995
2017-08-05T03:58:11.232Z,995
2017-08-05T03:58:31.874Z,995
2017-08-05T03:58:52.546Z,995
2017-08-05T03:59:13.228Z,995
2017-08-05T03:59:33.868Z,995
2017-08-05T03:59:54.561Z,995
2017-08-05T04:00:15.242Z,995
2017-08-05T04:00:35.901Z,995
2017-08-05T04:00:56.545Z,995
2017-08-05T04:01:17.189Z,995
2017-08-05T04:01:37.867Z,995.1
2017-08-05T04:01:58.512Z,995
2017-08-05T04:02:19.155Z,995
2017-08-05T04:02:39.847Z,995
2017-08-05T04:03:00.490Z,995
2017-08-05T04:03:21.139Z,995
2017-08-05T04:03:41.817Z,995
2017-08-05T04:04:02.471Z,995
2017-08-05T04:04:23.122Z,995
2017-08-05T04:04:43.791Z,995
2017-08-05T04:05:04.438Z,995
2017-08-05T04:05:25.066Z,994.9
2017-08-05T04:05:45.725Z,994.9
2017-08-05T04:06:06.365Z,994.9
2017-08-05T04:06:27.007Z,994.9
2017-08-05T04:06:58.519Z,994.9
2017-08-05T04:07:19.165Z,994.9
2017-08-05T04:07:39.796Z,994.9
2017-08-05T04:08:00.463Z,994.9
2017-08-05T04:08:21.121Z,994.9
2017-08-05T04:08:41.780Z,995
2017-08-05T04:09:02.446Z,995
2017-08-05T04:09:23.087Z,995
2017-08-05T04:09:43.736Z,995
2017-08-05T04:10:04.394Z,995
2017-08-05T04:10:25.036Z,995
2017-08-05T04:10:45.667Z,995
2017-08-05T04:11:06.316Z,995.1
2017-08-05T04:11:26.944Z,995.1
2017-08-05T04:11:47.592Z,995
2017-08-05T04:12:08.258Z,995
2017-08-05T04:12:28.896Z,995.1
2017-08-05T04:12:49.542Z,995
2017-08-05T04:13:10.202Z,995.1
2017-08-05T04:13:30.863Z,995.1
2017-08-05T04:13:51.534Z,995.1
2017-08-05T04:14:12.198Z,995.1
2017-08-05T04:14:32.838Z,995.1
2017-08-05T04:14:53.513Z,995.1
2017-08-05T04:15:14.189Z,995.1
2017-08-05T04:15:34.825Z,995.1
2017-08-05T04:15:55.482Z,995.1
2017-08-05T04:16:16.117Z,995.1
2017-08-05T04:16:36.748Z,995.1
2017-08-05T04:16:57.409Z,995.1
2017-08-05T04:17:18.069Z,995.1
2017-08-05T04:17:38.716Z,995.1
2017-08-05T04:17:59.376Z,995.1
2017-08-05T04:18:20.008Z,995.1
2017-08-05T04:18:40.651Z,995.1
2017-08-05T04:19:01.294Z,995.1
2017-08-05T04:19:21.945Z,995.1
2017-08-05T04:19:42.598Z,995
2017-08-05T04:20:03.249Z,995.1
2017-08-05T04:20:23.890Z,995
2017-08-05T04:20:44.538Z,995
2017-08-05T04:21:05.194Z,995
2017-08-05T04:21:25.840Z,995.1
2017-08-05T04:21:46.474Z,995.1
2017-08-05T04:22:07.125Z,995.1
2017-08-05T04:22:27.763Z,995.1
2017-08-05T04:22:48.420Z,995.1
2017-08-05T04:23:09.056Z,995
2017-08-05T04:23:29.706Z,995
2017-08-05T04:23:50.353Z,995.1
2017-08-05T04:24:11.011Z,995
2017-08-05T04:24:31.662Z,995.1
2017-08-05T04:24:52.315Z,995.1
2017-08-05T04:25:12.968Z,995.1
2017-08-05T04:25:33.613Z,995.1
2017-08-05T04:25:54.260Z,995.1
2017-08-05T04:26:14.911Z,995.1
2017-08-05T04:26:35.561Z,995
2017-08-05T04:26:56.228Z,995.1
2017-08-05T04:27:16.900Z,995.1
2017-08-05T04:27:37.567Z,995.1
2017-08-05T04:27:58.210Z,995